createdAt,value
2022-08-30T00:02:21.045Z,100564.63
2022-08-30T00:04:49.187Z,100565.22
2022-08-30T00:07:17.196Z,100560.34
2022-08-30T00:09:45.031Z,100562.44
2022-08-30T00:12:12.950Z,100559.88
2022-08-30T00:14:41.077Z,100569.75
2022-08-30T00:17:08.809Z,100562.06
2022-08-30T00:19:37.289Z,100558.19
2022-08-30T00:22:07.225Z,100549.50
2022-08-30T00:24:35.247Z,100552.44
2022-08-30T00:27:03.177Z,100552.44
2022-08-30T00:29:31.161Z,100557.78
2022-08-30T00:31:58.868Z,100559.41
2022-08-30T00:34:26.901Z,100554.22
2022-08-30T00:36:54.706Z,100547.94
2022-08-30T00:39:22.438Z,100557.56
2022-08-30T00:41:50.437Z,100554.16
2022-08-30T00:44:18.694Z,100545.03
2022-08-30T00:46:46.462Z,100547.88
2022-08-30T00:49:15.103Z,100549.97
2022-08-30T00:51:43.514Z,100549.34
2022-08-30T00:54:12.271Z,100553.13
2022-08-30T00:56:40.393Z,100551.81
2022-08-30T00:59:10.370Z,100550.25
2022-08-30T01:01:38.655Z,100544.97
2022-08-30T01:04:08.920Z,100557.16
2022-08-30T01:06:39.495Z,100558.78
2022-08-30T01:09:09.132Z,100566.06
2022-08-30T01:11:38.156Z,100565.28
2022-08-30T01:14:06.881Z,100570.13
2022-08-30T01:16:36.130Z,100563.13
2022-08-30T01:19:06.870Z,100559.66
2022-08-30T01:21:34.971Z,100563.53
2022-08-30T01:24:05.059Z,100566.88
2022-08-30T01:26:35.040Z,100560.44
2022-08-30T01:29:10.449Z,100564.09
2022-08-30T01:31:38.426Z,100562.69
2022-08-30T01:34:07.815Z,100560.13
2022-08-30T01:36:37.822Z,100558.28
2022-08-30T01:39:15.467Z,100556.25
2022-08-30T01:41:43.720Z,100559.28
2022-08-30T01:44:13.118Z,100555.09
2022-08-30T01:46:46.252Z,100560.22
2022-08-30T01:49:17.490Z,100562.22
2022-08-30T01:51:51.009Z,100568.72
2022-08-30T01:54:36.833Z,100573.16
2022-08-30T01:57:09.928Z,100568.97
2022-08-30T01:59:39.044Z,100565.69
2022-08-30T02:02:08.420Z,100563.91
2022-08-30T02:04:36.862Z,100563.91
2022-08-30T02:07:05.683Z,100552.28
2022-08-30T02:09:33.844Z,100562.22
2022-08-30T02:12:01.666Z,100562.34
2022-08-30T02:14:29.415Z,100563.28
2022-08-30T02:16:57.413Z,100571.13
2022-08-30T02:19:25.275Z,100568.72
2022-08-30T02:21:53.022Z,100572.44
2022-08-30T02:24:21.179Z,100567.56
2022-08-30T02:26:49.485Z,100560.72
2022-08-30T02:29:17.485Z,100560.03
2022-08-30T02:31:45.909Z,100562.34
2022-08-30T02:34:14.070Z,100563.00
2022-08-30T02:36:42.343Z,100563.00
2022-08-30T02:39:12.756Z,100562.72
2022-08-30T02:41:41.725Z,100560.66
2022-08-30T02:44:10.782Z,100564.69
2022-08-30T02:46:38.916Z,100566.56
2022-08-30T02:49:32.176Z,100568.56
2022-08-30T02:51:56.730Z,100570.84
2022-08-30T02:54:24.782Z,100571.00
2022-08-30T02:56:52.682Z,100576.41
2022-08-30T02:59:21.018Z,100580.28
2022-08-30T03:01:49.152Z,100581.19
2022-08-30T03:04:16.998Z,100584.91
2022-08-30T03:06:45.732Z,100581.56
2022-08-30T03:09:13.601Z,100583.59
2022-08-30T03:11:42.722Z,100588.78
2022-08-30T03:14:10.606Z,100587.16
2022-08-30T03:16:38.383Z,100591.69
2022-08-30T03:19:06.115Z,100584.72
2022-08-30T03:21:36.261Z,100598.09
2022-08-30T03:24:04.264Z,100596.31
2022-08-30T03:26:31.946Z,100593.84
2022-08-30T03:28:59.985Z,100601.88
2022-08-30T03:31:27.704Z,100600.38
2022-08-30T03:33:55.467Z,100594.41
2022-08-30T03:36:23.458Z,100599.72
2022-08-30T03:38:51.234Z,100596.34
2022-08-30T03:41:19.076Z,100597.19
2022-08-30T03:43:47.493Z,100599.91
2022-08-30T03:46:16.049Z,100597.41
2022-08-30T03:48:44.136Z,100590.97
2022-08-30T03:51:12.018Z,100589.91
2022-08-30T03:53:39.747Z,100596.25
2022-08-30T03:56:07.584Z,100590.84
2022-08-30T03:58:36.080Z,100592.69
2022-08-30T04:01:04.063Z,100598.03
2022-08-30T04:03:31.809Z,100598.66
2022-08-30T04:06:00.656Z,100602.38
2022-08-30T04:08:28.909Z,100597.25
2022-08-30T04:10:56.732Z,100590.28
2022-08-30T04:13:25.282Z,100595.53
2022-08-30T04:15:53.110Z,100591.13
2022-08-30T04:18:21.121Z,100597.19
2022-08-30T04:20:51.276Z,100602.25
2022-08-30T04:23:19.585Z,100593.88
2022-08-30T04:25:47.409Z,100598.06
2022-08-30T04:28:15.638Z,100602.91
2022-08-30T04:30:44.541Z,100604.47
2022-08-30T04:33:13.771Z,100606.91
2022-08-30T04:35:46.604Z,100598.34
2022-08-30T04:38:15.239Z,100610.59
2022-08-30T04:40:45.352Z,100609.53
2022-08-30T04:43:13.352Z,100613.97
2022-08-30T04:45:42.800Z,100620.91
2022-08-30T04:48:10.733Z,100614.47
2022-08-30T04:50:38.545Z,100623.22
2022-08-30T04:53:13.846Z,100626.56
2022-08-30T04:55:43.426Z,100627.34
2022-08-30T04:58:12.058Z,100635.56
2022-08-30T05:00:43.005Z,100639.13
2022-08-30T05:03:10.889Z,100641.00
2022-08-30T05:05:41.885Z,100638.03
2022-08-30T05:08:12.758Z,100647.91
2022-08-30T05:10:46.129Z,100649.16
2022-08-30T05:13:15.756Z,100649.59
2022-08-30T05:15:44.436Z,100650.13
2022-08-30T05:18:14.194Z,100649.28
2022-08-30T05:20:43.539Z,100649.97
2022-08-30T05:23:11.386Z,100650.81
2022-08-30T05:25:41.375Z,100643.13
2022-08-30T05:28:10.235Z,100653.59
2022-08-30T05:30:38.477Z,100662.22
2022-08-30T05:33:06.746Z,100660.00
2022-08-30T05:35:34.844Z,100666.31
2022-08-30T05:38:02.639Z,100659.75
2022-08-30T05:40:30.653Z,100656.38
2022-08-30T05:42:59.472Z,100652.28
2022-08-30T05:45:27.221Z,100659.59
2022-08-30T05:47:54.977Z,100654.47
2022-08-30T05:50:23.384Z,100657.94
2022-08-30T05:52:51.108Z,100662.53
2022-08-30T05:55:21.927Z,100655.88
2022-08-30T05:57:49.871Z,100657.38
2022-08-30T06:00:19.065Z,100655.50
2022-08-30T06:02:46.969Z,100653.03
2022-08-30T06:05:15.061Z,100658.16
2022-08-30T06:07:44.081Z,100653.78
2022-08-30T06:10:12.570Z,100656.44
2022-08-30T06:12:40.778Z,100654.91
2022-08-30T06:15:09.363Z,100658.81
2022-08-30T06:17:39.609Z,100654.88
2022-08-30T06:20:09.714Z,100655.53
2022-08-30T06:22:38.982Z,100649.81
2022-08-30T06:25:07.366Z,100659.97
2022-08-30T06:27:35.272Z,100664.28
2022-08-30T06:30:03.737Z,100666.81
2022-08-30T06:32:31.668Z,100669.88
2022-08-30T06:34:59.524Z,100670.63
2022-08-30T06:37:29.403Z,100676.41
2022-08-30T06:39:59.632Z,100673.66
2022-08-30T06:42:32.202Z,100670.69
2022-08-30T06:45:01.926Z,100673.78
2022-08-30T06:47:30.630Z,100682.59
2022-08-30T06:49:58.952Z,100685.72
2022-08-30T06:52:26.757Z,100691.69
2022-08-30T06:54:58.391Z,100687.78
2022-08-30T06:57:27.084Z,100693.47
2022-08-30T06:59:58.785Z,100696.94
2022-08-30T07:02:27.019Z,100703.31
2022-08-30T07:04:54.904Z,100705.72
2022-08-30T07:07:23.276Z,100705.31
2022-08-30T07:09:51.388Z,100700.78
2022-08-30T07:12:19.130Z,100716.25
2022-08-30T07:14:46.957Z,100713.56
2022-08-30T07:17:34.841Z,100714.50
2022-08-30T07:20:04.889Z,100723.09
2022-08-30T07:22:35.766Z,100716.84
2022-08-30T07:25:03.938Z,100724.00
2022-08-30T07:27:31.911Z,100727.84
2022-08-30T07:30:01.165Z,100727.66
2022-08-30T07:32:29.107Z,100727.88
2022-08-30T07:34:56.852Z,100726.16
2022-08-30T07:37:25.179Z,100721.28
2022-08-30T07:39:53.200Z,100723.25
2022-08-30T07:42:21.067Z,100724.91
2022-08-30T07:44:49.070Z,100726.91
2022-08-30T07:47:16.919Z,100733.38
2022-08-30T07:49:44.693Z,100734.72
2022-08-30T07:52:12.711Z,100736.50
2022-08-30T07:54:40.527Z,100738.06
2022-08-30T07:57:08.521Z,100738.06
2022-08-30T07:59:36.555Z,100744.06
2022-08-30T08:02:04.655Z,100739.50
2022-08-30T08:04:33.267Z,100739.94
2022-08-30T08:07:01.381Z,100745.09
2022-08-30T08:09:29.287Z,100747.97
2022-08-30T08:11:57.562Z,100752.00
2022-08-30T08:14:25.951Z,100756.03
2022-08-30T08:16:53.846Z,100754.09
2022-08-30T08:19:21.781Z,100758.81
2022-08-30T08:21:55.698Z,100748.13
2022-08-30T08:24:37.206Z,100750.41
2022-08-30T08:27:05.304Z,100757.88
2022-08-30T08:29:33.139Z,100761.09
2022-08-30T08:32:01.287Z,100750.53
2022-08-30T08:34:29.203Z,100759.13
2022-08-30T08:36:56.993Z,100756.19
2022-08-30T08:39:24.889Z,100754.84
2022-08-30T08:42:31.964Z,100764.78
2022-08-30T08:45:12.957Z,100765.16
2022-08-30T08:47:59.229Z,100762.59
2022-08-30T08:50:30.159Z,100761.88
2022-08-30T08:53:45.479Z,100762.56
2022-08-30T08:56:16.876Z,100771.88
2022-08-30T08:58:48.973Z,100772.63
2022-08-30T09:01:20.483Z,100780.63
2022-08-30T09:03:49.450Z,100769.00
2022-08-30T09:06:28.946Z,100770.47
2022-08-30T09:08:57.149Z,100766.38
2022-08-30T09:11:28.593Z,100770.69
2022-08-30T09:13:56.480Z,100775.59
2022-08-30T09:16:56.816Z,100776.47
2022-08-30T09:19:58.894Z,100771.19
2022-08-30T09:22:38.006Z,100768.78
2022-08-30T09:25:17.287Z,100775.59
2022-08-30T09:27:47.875Z,100776.56
2022-08-30T09:30:30.365Z,100771.66
2022-08-30T09:33:01.750Z,100768.63
2022-08-30T09:35:37.507Z,100775.06
2022-08-30T09:38:08.437Z,100777.53
2022-08-30T09:40:42.619Z,100782.16
2022-08-30T09:43:16.352Z,100774.63
2022-08-30T09:45:49.803Z,100782.13
2022-08-30T09:48:34.391Z,100781.13
2022-08-30T09:51:12.990Z,100778.41
2022-08-30T09:54:07.261Z,100779.25
2022-08-30T09:56:53.496Z,100775.84
2022-08-30T09:59:42.497Z,100776.41
2022-08-30T10:02:19.067Z,100779.16
2022-08-30T10:04:46.966Z,100777.00
2022-08-30T10:07:21.362Z,100780.69
2022-08-30T10:10:29.044Z,100785.00
2022-08-30T10:13:29.626Z,100780.28
2022-08-30T10:16:22.489Z,100777.97
2022-08-30T10:19:02.293Z,100782.91
2022-08-30T10:21:50.129Z,100786.91
2022-08-30T10:24:24.594Z,100783.47
2022-08-30T10:26:55.466Z,100780.09
2022-08-30T10:29:30.478Z,100783.59
2022-08-30T10:32:51.381Z,100777.19
2022-08-30T10:35:29.064Z,100782.81
2022-08-30T10:38:10.568Z,100787.75
2022-08-30T10:41:02.292Z,100786.44
2022-08-30T10:43:52.675Z,100790.88
2022-08-30T10:46:50.607Z,100791.34
2022-08-30T10:49:22.491Z,100794.72
2022-08-30T10:52:11.822Z,100795.38
2022-08-30T10:54:47.204Z,100792.91
2022-08-30T10:57:14.920Z,100797.50
2022-08-30T10:59:50.534Z,100793.16
2022-08-30T11:02:29.892Z,100796.03
2022-08-30T11:05:12.376Z,100792.97
2022-08-30T11:08:03.073Z,100789.13
2022-08-30T11:10:42.462Z,100793.06
2022-08-30T11:13:26.409Z,100774.94
2022-08-30T11:16:15.419Z,100783.84
2022-08-30T11:18:52.139Z,100787.97
2022-08-30T11:21:23.477Z,100784.94
2022-08-30T11:24:10.861Z,100789.44
2022-08-30T11:27:00.126Z,100784.31
2022-08-30T11:29:30.834Z,100788.19
2022-08-30T11:32:17.324Z,100787.72
2022-08-30T11:34:48.002Z,100795.97
2022-08-30T11:37:35.960Z,100792.81
2022-08-30T11:40:13.317Z,100801.56
2022-08-30T11:42:49.318Z,100800.31
2022-08-30T11:45:24.759Z,100800.97
2022-08-30T11:48:00.842Z,100799.63
2022-08-30T11:50:53.977Z,100793.50
2022-08-30T11:53:38.207Z,100794.97
2022-08-30T11:56:35.054Z,100793.91
2022-08-30T11:59:26.767Z,100795.16
2022-08-30T12:01:55.822Z,100793.34
2022-08-30T12:04:43.155Z,100797.84
2022-08-30T12:07:12.660Z,100791.06
2022-08-30T12:09:46.794Z,100794.19
2022-08-30T12:12:26.768Z,100786.56
2022-08-30T12:14:57.616Z,100780.06
2022-08-30T12:17:47.017Z,100774.84
2022-08-30T12:20:26.021Z,100783.53
2022-08-30T12:22:55.661Z,100776.94
2022-08-30T12:25:34.085Z,100773.41
2022-08-30T12:28:12.083Z,100772.84
2022-08-30T12:30:41.054Z,100780.81
2022-08-30T12:33:12.711Z,100768.94
2022-08-30T12:35:43.919Z,100770.13
2022-08-30T12:38:27.658Z,100772.19
2022-08-30T12:41:00.350Z,100763.38
2022-08-30T12:43:40.195Z,100755.63
2022-08-30T12:46:15.339Z,100759.91
2022-08-30T12:48:45.063Z,100757.56
2022-08-30T12:51:38.956Z,100754.78
2022-08-30T12:54:16.097Z,100741.91
2022-08-30T12:57:19.313Z,100757.56
2022-08-30T12:59:59.325Z,100747.13
2022-08-30T13:02:53.131Z,100747.13
2022-08-30T13:05:41.683Z,100749.00
2022-08-30T13:08:18.792Z,100750.53
2022-08-30T13:11:01.538Z,100742.13
2022-08-30T13:13:51.956Z,100738.13
2022-08-30T13:16:35.437Z,100740.13
2022-08-30T13:19:33.612Z,100737.31
2022-08-30T13:22:02.322Z,100738.13
2022-08-30T13:24:30.933Z,100735.69
2022-08-30T13:27:11.853Z,100737.16
2022-08-30T13:29:40.546Z,100750.53
2022-08-30T13:32:10.109Z,100736.94
2022-08-30T13:34:38.893Z,100741.16
2022-08-30T13:37:44.297Z,100736.78
2022-08-30T13:39:55.749Z,100738.16
2022-08-30T13:42:39.055Z,100736.72
2022-08-30T13:45:40.975Z,100740.13
2022-08-30T13:47:56.007Z,100745.63
2022-08-30T13:50:23.956Z,100741.94
2022-08-30T13:52:55.162Z,100739.53
2022-08-30T13:55:23.077Z,100734.56
2022-08-30T13:57:55.201Z,100735.00
2022-08-30T14:00:25.357Z,100737.16
2022-08-30T14:02:57.544Z,100733.56
2022-08-30T14:05:48.700Z,100736.72
2022-08-30T14:11:18.394Z,100731.38
2022-08-30T14:16:37.132Z,100735.00
2022-08-30T14:19:06.333Z,100737.06
2022-08-30T14:21:36.257Z,100731.63
2022-08-30T14:24:06.552Z,100737.44
2022-08-30T14:26:40.720Z,100727.50
2022-08-30T14:29:11.209Z,100724.84
2022-08-30T14:31:40.350Z,100728.59
2022-08-30T14:34:10.951Z,100727.31
2022-08-30T14:36:42.541Z,100725.22
2022-08-30T14:39:14.725Z,100721.22
2022-08-30T14:41:45.889Z,100723.19
2022-08-30T14:44:15.658Z,100719.50
2022-08-30T14:46:44.453Z,100727.19
2022-08-30T14:49:13.918Z,100726.91
2022-08-30T14:51:42.582Z,100717.59
2022-08-30T14:54:10.885Z,100717.25
2022-08-30T14:56:45.102Z,100716.59
2022-08-30T14:59:13.426Z,100715.69
2022-08-30T15:01:42.105Z,100719.50
2022-08-30T15:04:10.813Z,100718.53
2022-08-30T15:06:40.553Z,100722.63
2022-08-30T15:09:11.193Z,100737.69
2022-08-30T15:11:39.979Z,100737.53
2022-08-30T15:14:08.888Z,100738.06
2022-08-30T15:16:39.774Z,100743.13
2022-08-30T15:19:10.681Z,100745.97
2022-08-30T15:21:46.471Z,100738.91
2022-08-30T15:24:19.833Z,100738.75
2022-08-30T15:26:55.484Z,100743.22
2022-08-30T15:29:24.526Z,100740.88
2022-08-30T15:31:52.649Z,100741.34
2022-08-30T15:34:28.120Z,100740.91
2022-08-30T15:36:57.265Z,100736.09
2022-08-30T15:39:25.973Z,100730.44
2022-08-30T15:41:58.429Z,100728.69
2022-08-30T15:44:32.524Z,100724.25
2022-08-30T15:47:03.966Z,100724.66
2022-08-30T15:49:32.275Z,100720.84
2022-08-30T15:52:02.445Z,100720.44
2022-08-30T15:54:30.962Z,100712.84
2022-08-30T15:56:59.576Z,100717.84
2022-08-30T15:59:29.367Z,100717.97
2022-08-30T16:01:58.115Z,100718.94
2022-08-30T16:04:26.237Z,100718.72
2022-08-30T16:06:54.441Z,100715.97
2022-08-30T16:09:23.154Z,100709.38
2022-08-30T16:11:51.188Z,100707.88
2022-08-30T16:14:19.074Z,100704.47
2022-08-30T16:16:46.793Z,100703.00
2022-08-30T16:19:14.751Z,100706.41
2022-08-30T16:21:44.076Z,100708.09
2022-08-30T16:24:14.086Z,100709.59
2022-08-30T16:26:43.700Z,100708.31
2022-08-30T16:29:13.204Z,100706.59
2022-08-30T16:31:44.296Z,100702.03
2022-08-30T16:34:15.088Z,100703.41
2022-08-30T16:36:43.740Z,100715.81
2022-08-30T16:39:13.554Z,100708.47
2022-08-30T16:41:44.344Z,100708.56
2022-08-30T16:44:13.573Z,100707.19
2022-08-30T16:46:44.038Z,100722.22
2022-08-30T16:49:23.178Z,100707.78
2022-08-30T16:51:53.492Z,100715.19
2022-08-30T16:54:21.297Z,100713.88
2022-08-30T16:56:49.160Z,100721.75
2022-08-30T16:59:17.743Z,100713.69
2022-08-30T17:01:48.134Z,100716.38
2022-08-30T17:04:19.298Z,100710.63
2022-08-30T17:06:49.690Z,100716.22
2022-08-30T17:09:19.183Z,100720.22
2022-08-30T17:11:47.846Z,100719.72
2022-08-30T17:14:21.550Z,100728.94
2022-08-30T17:16:56.263Z,100730.28
2022-08-30T17:19:27.257Z,100732.75
2022-08-30T17:21:58.074Z,100723.63
2022-08-30T17:24:27.170Z,100732.16
2022-08-30T17:26:55.413Z,100732.06
2022-08-30T17:29:23.310Z,100727.06
2022-08-30T17:31:51.709Z,100727.84
2022-08-30T17:34:21.995Z,100729.69
2022-08-30T17:36:51.497Z,100728.56
2022-08-30T17:39:19.676Z,100734.63
2022-08-30T17:41:50.517Z,100735.06
2022-08-30T17:44:29.032Z,100731.44
2022-08-30T17:46:59.561Z,100736.75
2022-08-30T17:49:28.832Z,100744.47
2022-08-30T17:51:57.995Z,100742.06
2022-08-30T17:54:28.131Z,100739.97
2022-08-30T17:56:57.441Z,100750.03
2022-08-30T17:59:26.460Z,100751.06
2022-08-30T18:01:57.441Z,100743.56
2022-08-30T18:04:26.955Z,100754.38
2022-08-30T18:06:56.175Z,100751.63
2022-08-30T18:09:24.585Z,100758.91
2022-08-30T18:11:56.303Z,100761.84
2022-08-30T18:14:25.222Z,100761.56
2022-08-30T18:16:54.873Z,100767.44
2022-08-30T18:19:24.316Z,100769.44
2022-08-30T18:21:52.706Z,100768.94
2022-08-30T18:24:21.990Z,100761.94
2022-08-30T18:26:50.422Z,100777.50
2022-08-30T18:29:26.052Z,100773.88
2022-08-30T18:32:03.432Z,100774.06
2022-08-30T18:34:31.778Z,100776.31
2022-08-30T18:37:01.127Z,100786.34
2022-08-30T18:42:17.636Z,100784.47
2022-08-30T18:44:45.706Z,100787.47
2022-08-30T18:47:13.579Z,100782.78
2022-08-30T18:49:42.694Z,100790.53
2022-08-30T18:52:11.481Z,100789.53
2022-08-30T18:54:51.701Z,100790.09
2022-08-30T18:57:22.143Z,100786.84
2022-08-30T18:59:50.360Z,100793.09
2022-08-30T19:02:19.052Z,100793.00
2022-08-30T19:04:49.219Z,100796.09
2022-08-30T19:07:19.524Z,100797.47
2022-08-30T19:09:47.465Z,100788.41
2022-08-30T19:12:16.210Z,100792.88
2022-08-30T19:14:43.972Z,100790.22
2022-08-30T19:17:12.633Z,100796.28
2022-08-30T19:19:47.235Z,100804.28
2022-08-30T19:22:19.048Z,100801.41
2022-08-30T19:24:49.733Z,100808.94
2022-08-30T19:30:29.931Z,100805.94
2022-08-30T19:32:57.886Z,100803.28
2022-08-30T19:35:26.619Z,100793.63
2022-08-30T19:37:59.508Z,100800.19
2022-08-30T19:40:28.209Z,100795.25
2022-08-30T19:42:56.767Z,100800.91
2022-08-30T19:45:25.268Z,100802.19
2022-08-30T19:47:53.681Z,100804.81
2022-08-30T19:50:22.170Z,100797.56
2022-08-30T19:52:54.144Z,100800.03
2022-08-30T19:55:30.166Z,100803.28
2022-08-30T19:57:59.321Z,100804.63
2022-08-30T20:00:27.304Z,100802.63
2022-08-30T20:03:01.450Z,100798.53
2022-08-30T20:05:31.834Z,100808.03
2022-08-30T20:08:00.644Z,100810.16
2022-08-30T20:10:28.548Z,100803.00
2022-08-30T20:12:56.807Z,100801.66
2022-08-30T20:15:25.766Z,100796.47
2022-08-30T20:18:05.097Z,100800.22
2022-08-30T20:20:33.740Z,100801.59
2022-08-30T20:23:05.584Z,100806.13
2022-08-30T20:24:28.313Z,100792.22
2022-08-30T20:25:34.447Z,100811.41
2022-08-30T20:28:03.369Z,100811.75
2022-08-30T20:30:32.306Z,100809.34
2022-08-30T20:33:03.712Z,100807.47
2022-08-30T20:35:34.280Z,100806.88
2022-08-30T20:38:06.482Z,100811.78
2022-08-30T20:40:37.112Z,100815.16
2022-08-30T20:43:06.349Z,100816.00
2022-08-30T20:45:34.685Z,100808.84
2022-08-30T20:48:03.261Z,100810.88
2022-08-30T20:50:31.505Z,100811.06
2022-08-30T20:52:59.439Z,100817.19
2022-08-30T20:55:27.203Z,100813.78
2022-08-30T20:57:55.116Z,100819.00
2022-08-30T21:00:23.864Z,100803.88
2022-08-30T21:02:54.619Z,100812.94
2022-08-30T21:05:22.745Z,100818.22
2022-08-30T21:07:50.550Z,100818.56
2022-08-30T21:10:22.712Z,100811.72
2022-08-30T21:12:51.703Z,100818.03
2022-08-30T21:15:37.610Z,100822.13
2022-08-30T21:18:06.552Z,100827.59
2022-08-30T21:20:34.368Z,100825.41
2022-08-30T21:23:02.373Z,100826.25
2022-08-30T21:25:33.274Z,100813.44
2022-08-30T21:28:01.374Z,100813.19
2022-08-30T21:30:29.312Z,100814.44
2022-08-30T21:33:00.102Z,100807.38
2022-08-30T21:35:47.396Z,100813.75
2022-08-30T21:38:16.582Z,100815.31
2022-08-30T21:40:44.692Z,100815.84
2022-08-30T21:43:12.757Z,100813.97
2022-08-30T21:45:41.765Z,100824.03
2022-08-30T21:48:11.584Z,100824.34
2022-08-30T21:50:42.290Z,100823.84
2022-08-30T21:53:10.810Z,100814.63
2022-08-30T21:55:40.311Z,100809.41
2022-08-30T21:58:11.813Z,100815.63
2022-08-30T22:00:39.616Z,100817.94
2022-08-30T22:03:07.375Z,100822.66
2022-08-30T22:05:35.541Z,100818.56
2022-08-30T22:08:03.504Z,100820.53
2022-08-30T22:10:33.258Z,100818.97
2022-08-30T22:13:01.613Z,100822.66
2022-08-30T22:15:31.561Z,100819.25
2022-08-30T22:18:00.950Z,100821.63
2022-08-30T22:20:30.321Z,100817.25
2022-08-30T22:22:58.602Z,100820.59
2022-08-30T22:25:26.671Z,100823.00
2022-08-30T22:27:54.625Z,100832.53
2022-08-30T22:30:22.603Z,100821.94
2022-08-30T22:32:51.479Z,100823.28
2022-08-30T22:35:20.687Z,100825.25
2022-08-30T22:37:53.493Z,100829.13
2022-08-30T22:40:22.259Z,100826.50
2022-08-30T22:42:50.063Z,100832.63
2022-08-30T22:45:18.134Z,100823.75
2022-08-30T22:47:46.275Z,100826.13
2022-08-30T22:50:14.387Z,100829.41
2022-08-30T22:52:42.214Z,100824.19
2022-08-30T22:55:10.143Z,100831.50
2022-08-30T22:57:39.138Z,100828.78
2022-08-30T23:00:15.190Z,100833.50
2022-08-30T23:02:47.036Z,100835.34
2022-08-30T23:05:16.215Z,100827.16
2022-08-30T23:07:44.506Z,100828.88
2022-08-30T23:10:14.423Z,100829.47
2022-08-30T23:12:43.075Z,100827.47
2022-08-30T23:15:14.940Z,100825.91
2022-08-30T23:17:42.879Z,100828.75
2022-08-30T23:20:10.975Z,100827.13
2022-08-30T23:22:38.919Z,100824.19
2022-08-30T23:25:26.555Z,100832.09
2022-08-30T23:28:19.100Z,100830.22
2022-08-30T23:31:07.084Z,100828.19
2022-08-30T23:33:53.692Z,100829.63
2022-08-30T23:36:40.131Z,100836.84
2022-08-30T23:39:26.793Z,100828.09
2022-08-30T23:42:13.415Z,100831.78
2022-08-30T23:45:00.220Z,100828.78
2022-08-30T23:47:46.574Z,100833.13
2022-08-30T23:50:33.021Z,100826.47
2022-08-30T23:53:19.666Z,100832.63
2022-08-30T23:56:06.568Z,100826.13
2022-08-30T23:58:54.254Z,100823.91
